Detroit, Michigan
Traffic Map
Current Weather Conditions
Detroit, Michigan
Broken Clouds
Broken Clouds
72°
Feels Like: 72°
Wind Chill: 72° Ceiling: 22000
Heat Index: 72° Visibility: 10mi
Dew Point: 70° Wind: 6mph
Humidity: 94% Direction: 180° (S)
Pressure: 29.79in Gusts: 0mph
Raw Report DataCYQG 230300Z 18005KT 10SM SCT110 BKN220 22/21 A2979 RMK AC4CC3 SLP088 DENSITY ALT 1700FT
Traffic Incident Summary
Active as of:
Severity:
Category:
InformationThere was an issue retrieving the traffic information for this location. Please try a different location or try again shortly.
Advertisements
Track Severe Weather on mobile